Berwick, Ohio
Current Conditions -  °F | °C
As of 4:53 PM on Thursday 27 Nov 2014 (Local Time) from KFDY Reporting Station
Light Snow Light Snow  
Wind Chill: 23°   Ceiling: 1500
Heat Index: 33°   Visibility: 5mi
Dew Point: 27°   Wind: 16mph
Humidity: 78%   Direction: 260°W
Pressure: 30.21"   Gusts: NA
Location:  41.0558°N, 83.3049°W
Report Text: KFDY 272153Z AUTO 26014KT 5SM -SN BKN015 BKN019 OVC028 01/M03 A3021 RMK AO2 SNB28 SLP236 P0000 T00061028
Loading
Personal Weather Stations






























Interactive Weather Map New forecast layout! Learn more

10-Day Weather Forecast

Advertisements
Track Severe Weather on mobile